Latest Coastal Weather Observations for King Island Airport

IDV60701

Issued at 2:15 pm EDT Wednesday 26 November 2014 (issued every 10 minutes, with the page automatically refreshed every 10 minutes)

About coastal observations | Map of coastal stations | Coastal observations for VIC | Marine services | Other Formats
Station Details ID: 098017 Name: KING ISLAND AIRPORT Lat: -39.88 Lon: 143.88 Height: 37.0 m
Data from the previous 72 hours. | See also: Recent months at King Island Airport
Date/Time
EDT
Temp

°C
Wind Pressure Rain
since 9am
mm
Weather Cloud Vis
km
Sea
Height
m
Swell
Dir
 
Speed
knots
Gust
knots
hPa Trend Height
m
Period
s
Dir
26/02:00pm 14.7 SSW 16 23 1022.0 - 0.0 - Partly cloudy 10 - - - -
26/01:30pm 14.9 SSW 16 24 1021.8 - 0.0 - Partly cloudy 10 - - - -
26/01:00pm 15.2 SSW 16 25 1021.8 - 0.0 - Partly cloudy 10 - - - -
26/12:30pm 14.9 SW 18 24 1021.6 - 0.0 - Partly cloudy 10 - - - -
26/12:00pm 14.7 SW 18 25 1021.6 - 0.0 - Mostly cloudy 10 - - - -
26/11:30am 14.5 SSW 17 22 1021.3 - 0.0 - Partly cloudy 10 - - - -
26/11:00am 14.4 SW 17 23 1021.1 - 0.0 - Partly cloudy 10 - - - -
26/10:30am 14.4 SW 17 24 1020.6 - 0.0 - Partly cloudy 10 - - - -
26/10:00am 14.2 SW 18 23 1020.5 - 0.0 - Partly cloudy 10 - - - -
26/09:30am 14.0 SW 18 23 1020.5 - 0.0 - Partly cloudy 10 - - - -
26/09:00am 13.5 SW 15 19 1020.1 - 2.8 - Mostly cloudy 10 - - - -
26/08:30am 12.8 SSW 15 20 1019.8 - 2.8 - Partly cloudy 10 - - - -
26/08:00am 12.7 SW 15 21 1019.4 - 2.8 - Partly cloudy 10 - - - -
26/07:39am 12.3 SW 12 17 1019.3 - 2.8 - Partly cloudy 10 - - - -
26/07:37am 12.1 SW 12 17 1019.2 - 2.8 - Partly cloudy 10 - - - -
26/07:30am 11.9 SW 12 17 1019.2 - 2.8 - Partly cloudy 7 - - - -
26/07:23am 11.8 SW 16 26 1019.1 - 2.8 - Partly cloudy 5 - - - -
26/07:11am 12.6 SSW 16 19 1018.8 - 2.4 - Partly cloudy 5 - - - -
26/07:09am 12.7 W 17 23 1018.7 - 2.4 - Partly cloudy 6 - - - -
26/07:00am 12.7 W 16 22 1018.6 - 2.4 - Partly cloudy 6 - - - -
26/06:43am 12.9 W 15 21 1018.4 - 2.4 - Partly cloudy 10 - - - -
26/06:30am 12.8 W 15 21 1018.3 - 2.4 - Partly cloudy 4 - - - -
26/06:06am 12.8 W 15 25 1018.0 - 0.6 - Partly cloudy 3 - - - -
26/06:01am 13.0 W 15 20 1018.0 - 0.2 - Partly cloudy 5 - - - -
26/06:00am 13.0 W 15 20 1018.0 - 0.2 Rain Cloudy 6 - - - -
26/05:58am 13.1 W 15 20 1018.0 - 0.2 - Partly cloudy 10 - - - -
26/05:30am 12.8 W 18 23 1017.9 - 0.2 - Partly cloudy 10 - - - -
26/05:00am 13.0 W 17 23 1017.7 - 0.2 - Partly cloudy 10 - - - -
26/04:30am 13.0 W 16 22 1017.6 - 0.2 - Partly cloudy 10 - - - -
26/04:19am 13.0 W 15 25 1017.6 - 0.2 - Partly cloudy 10 - - - -
26/04:00am 13.0 W 18 24 1017.7 - 0.2 - Partly cloudy 10 - - - -
26/03:30am 12.6 WNW 17 22 1017.7 - 0.2 - Partly cloudy 10 - - - -
26/03:06am 12.3 W 17 22 1017.9 - 0.2 - Partly cloudy 10 - - - -
26/03:00am 12.3 W 17 22 1018.0 - 0.2 Showers Cloudy 10 - - - -
26/02:49am 13.0 W 19 30 1018.1 - 0.2 - Partly cloudy 5 - - - -
26/02:46am 13.2 W 18 30 1018.0 - 0.2 - Partly cloudy 9 - - - -
26/02:30am 13.1 W 15 21 1018.0 - 0.2 - Partly cloudy 10 - - - -
26/02:00am 13.4 W 16 22 1018.1 - 0.2 - Partly cloudy 10 - - - -
26/01:30am 13.4 W 18 22 1018.4 - 0.2 - Partly cloudy 10 - - - -
26/01:00am 13.2 W 15 20 1018.8 - 0.2 - Partly cloudy 10 - - - -
26/12:30am 13.4 W 14 19 1018.9 - 0.2 - Partly cloudy 10 - - - -
26/12:00am 13.4 W 16 22 1019.0 - 0.2 - Cloudy 10 - - - -
 
Date/Time
EDT
Temp

°C
Wind Pressure Rain
since 9am
mm
Weather Cloud Vis
km
Sea
Height
m
Swell
Dir
 
Speed
knots
Gust
knots
hPa Trend Height
m
Period
s
Dir
25/11:30pm 13.1 W 15 21 1019.2 - 0.2 - Partly cloudy 10 - - - -
25/11:00pm 13.0 W 15 21 1019.4 - 0.2 - Partly cloudy 10 - - - -
25/10:30pm 13.1 W 15 22 1019.6 - 0.2 - Partly cloudy 10 - - - -
25/10:00pm 13.0 W 14 19 1019.6 - 0.2 - Partly cloudy 10 - - - -
25/09:30pm 13.0 W 13 18 1019.5 - 0.2 - Partly cloudy 10 - - - -
25/09:00pm 12.9 W 15 24 1019.5 - 0.2 - Mostly cloudy 10 - - - -
25/08:30pm 12.9 W 15 21 1019.2 - 0.2 - Partly cloudy 10 - - - -
25/08:00pm 12.9 W 15 21 1019.2 - 0.2 - Partly cloudy 10 - - - -
25/07:30pm 13.3 W 17 25 1018.9 - 0.2 - Partly cloudy 10 - - - -
25/07:00pm 13.7 W 17 25 1018.6 - 0.2 - Partly cloudy 10 - - - -
25/06:30pm 13.8 W 19 26 1018.2 - 0.2 - Partly cloudy 10 - - - -
25/06:00pm 13.9 W 18 27 1018.0 - 0.2 - Mostly cloudy 10 - - - -
25/05:30pm 14.6 W 21 31 1017.9 - 0.2 - Partly cloudy 10 - - - -
25/05:22pm 14.7 WSW 20 31 1017.9 - 0.2 - Partly cloudy 10 - - - -
25/05:00pm 14.7 W 21 28 1017.9 - 0.2 - Partly cloudy 10 - - - -
25/04:30pm 14.9 W 19 24 1017.8 - 0.2 - Partly cloudy 10 - - - -
25/04:12pm 14.9 W 20 30 1017.8 - 0.2 - Partly cloudy 10 - - - -
25/04:00pm 15.0 W 20 28 1017.8 - 0.2 - Partly cloudy 10 - - - -
25/03:50pm 15.2 W 21 31 1017.9 - 0.2 - Partly cloudy 10 - - - -
25/03:30pm 14.6 W 19 26 1017.8 - 0.2 - Cloudy 10 - - - -
25/03:00pm 15.5 W 22 30 1017.6 - 0.2 - Partly cloudy 10 - - - -
25/02:30pm 15.7 W 20 30 1017.5 - 0.2 - Cloudy 10 - - - -
25/02:18pm 15.9 W 20 30 1017.5 - 0.2 - Partly cloudy 10 - - - -
25/02:00pm 15.7 W 23 30 1017.3 - 0.2 - Partly cloudy 10 - - - -
25/01:30pm 15.8 W 19 25 1017.2 - 0.2 - Partly cloudy 10 - - - -
25/01:12pm 16.2 W 19 29 1017.3 - 0.2 - Partly cloudy 10 - - - -
25/01:00pm 16.3 W 19 28 1017.2 - 0.2 - Partly cloudy 10 - - - -
25/12:30pm 15.6 W 20 30 1017.2 - 0.2 - Partly cloudy 10 - - - -
25/12:29pm 15.6 W 20 30 1017.2 - 0.2 - Partly cloudy 10 - - - -
25/12:00pm 13.6 W 19 25 1017.2 - 0.2 - Cloudy 10 - - - -
25/11:48am 13.5 WSW 20 27 1017.1 - 0.2 - Partly cloudy 10 - - - -
25/11:30am 14.2 W 19 28 1016.9 - 0.2 - Partly cloudy 10 - - - -
25/11:00am 13.9 W 19 32 1016.7 - 0.2 - Partly cloudy 10 - - - -
25/10:53am 14.2 W 19 29 1016.6 - 0.2 - Partly cloudy 10 - - - -
25/10:30am 14.1 W 18 26 1016.3 - 0.2 - Partly cloudy 10 - - - -
25/10:13am 13.7 WSW 15 20 1016.1 - 0.2 - Partly cloudy 10 - - - -
25/10:00am 12.2 W 19 27 1016.1 - 0.2 - Partly cloudy 5 - - - -
25/09:56am 12.4 W 19 27 1016.1 - 0.2 - Partly cloudy 5 - - - -
25/09:52am 13.3 W 17 27 1016.0 - 0.0 - Partly cloudy 10 - - - -
25/09:30am 14.1 WSW 19 25 1015.7 - 0.0 - Partly cloudy 10 - - - -
25/09:00am 14.1 WSW 19 26 1015.3 - 3.6 - Partly cloudy 10 - - - -
25/08:34am 12.9 WSW 20 30 1014.9 - 3.6 - Partly cloudy 10 - - - -
25/08:30am 12.5 WSW 21 28 1015.0 - 3.6 - Partly cloudy 10 - - - -
25/08:23am 13.7 WSW 17 27 1014.7 - 3.6 - Partly cloudy 10 - - - -
25/08:00am 13.6 WSW 18 24 1014.5 - 3.6 - Partly cloudy 10 - - - -
25/07:46am 13.4 WSW 16 26 1014.2 - 3.6 - Partly cloudy 10 - - - -
25/07:30am 13.1 WSW 18 25 1014.0 - 3.6 - Partly cloudy 10 - - - -
25/07:00am 12.5 WSW 17 23 1013.5 - 3.6 - Partly cloudy 10 - - - -
25/06:44am 12.6 WSW 17 28 1013.3 - 3.6 - Partly cloudy 10 - - - -
25/06:30am 12.1 WSW 19 25 1013.2 - 3.6 - Partly cloudy 10 - - - -
25/06:00am 12.2 WSW 16 26 1012.6 - 3.6 Rain Mostly clear 10 - - - -
25/05:32am 10.7 WSW 20 30 1012.4 - 3.6 - Partly cloudy 10 - - - -
25/05:30am 11.0 WSW 21 30 1012.3 - 3.6 - Partly cloudy 9 - - - -
25/05:22am 12.2 WSW 19 30 1012.2 - 3.6 - Partly cloudy 10 - - - -
25/05:00am 11.9 WSW 17 25 1011.9 - 3.6 - Partly cloudy 10 - - - -
25/04:30am 11.8 WSW 16 20 1011.8 - 3.2 - Partly cloudy 10 - - - -
25/04:00am 12.3 W 17 22 1011.5 - 2.8 - Partly cloudy 10 - - - -
25/03:40am 12.6 WSW 16 26 1011.5 - 2.8 - Partly cloudy 10 - - - -
25/03:30am 12.4 W 16 23 1011.4 - 2.8 - Partly cloudy 10 - - - -
25/03:00am 11.7 W 16 21 1011.4 - 2.8 - Partly cloudy 10 - - - -
25/02:30am 12.6 W 18 26 1011.2 - 2.8 - Partly cloudy 10 - - - -
25/02:00am 11.8 W 16 22 1011.2 - 2.8 - Partly cloudy 10 - - - -
25/01:30am 12.1 W 15 22 1011.1 - 2.8 - Partly cloudy 10 - - - -
25/01:00am 10.8 W 17 27 1011.2 - 2.8 - Partly cloudy 6 - - - -
25/12:58am 11.5 W 17 27 1011.4 - 2.8 - Partly cloudy 7 - - - -
25/12:30am 12.7 W 17 25 1011.1 - 2.0 - Partly cloudy 10 - - - -
25/12:20am 12.9 W 18 28 1011.0 - 2.0 - Partly cloudy 10 - - - -
25/12:00am 13.1 W 16 24 1011.0 - 2.0 - Partly cloudy 10 - - - -
 
Date/Time
EDT
Temp

°C
Wind Pressure Rain
since 9am
mm
Weather Cloud Vis
km
Sea
Height
m
Swell
Dir
 
Speed
knots
Gust
knots
hPa Trend Height
m
Period
s
Dir
24/11:30pm 12.9 W 16 23 1011.0 - 2.0 - Partly cloudy 10 - - - -
24/11:00pm 12.7 W 14 20 1011.1 - 2.0 - Partly cloudy 10 - - - -
24/10:31pm 12.7 W 17 28 1011.3 - 2.0 - Partly cloudy 10 - - - -
24/10:30pm 13.0 W 17 23 1011.3 - 2.0 - Partly cloudy 10 - - - -
24/10:00pm 12.6 WSW 18 29 1011.0 - 2.0 - Partly cloudy 10 - - - -
24/09:59pm 12.6 WSW 17 29 1011.0 - 2.0 - Partly cloudy 10 - - - -
24/09:30pm 13.2 W 15 20 1010.6 - 1.8 - - 10 - - - -
24/09:00pm 13.2 W 16 22 1010.3 - 1.8 - Mostly clear 10 - - - -
24/08:30pm 13.3 W 15 23 1010.0 - 1.8 - Partly cloudy 10 - - - -
24/08:00pm 13.6 W 16 22 1009.6 - 1.8 - Partly cloudy 10 - - - -
24/07:30pm 14.1 WSW 18 26 1008.8 - 1.8 - - 10 - - - -
24/07:00pm 14.4 WSW 17 23 1008.0 - 1.8 - Partly cloudy 10 - - - -
24/06:30pm 14.2 WSW 19 26 1007.5 - 1.8 - Partly cloudy 10 - - - -
24/06:00pm 15.0 WSW 20 27 1007.4 - 1.8 - Mostly clear 10 - - - -
24/05:30pm 14.9 WSW 15 21 1007.2 - 1.8 - Partly cloudy 10 - - - -
24/05:00pm 14.4 WSW 13 19 1007.2 - 1.8 - Partly cloudy 10 - - - -
24/04:30pm 13.0 WSW 13 18 1007.3 - 1.8 - Partly cloudy 10 - - - -
24/04:05pm 12.2 WSW 15 19 1007.2 - 1.8 - Partly cloudy 10 - - - -
24/04:00pm 12.1 WSW 17 22 1007.2 - 1.8 - Partly cloudy 6 - - - -
24/03:52pm 12.1 WSW 19 27 1007.1 - 1.8 - Partly cloudy 7 - - - -
24/03:30pm 13.7 WSW 16 27 1006.9 - 1.6 - Partly cloudy 4 - - - -
24/03:29pm 13.7 WSW 15 27 1006.9 - 1.6 - Partly cloudy 4 - - - -
24/03:26pm 14.3 WSW 13 19 1007.0 - 1.4 - Partly cloudy 5 - - - -
24/03:00pm 14.9 WSW 12 17 1007.0 - 0.6 - Cloudy 10 - - - -
24/02:30pm 15.0 WSW 9 15 1007.0 - 0.6 - Partly cloudy 10 - - - -
24/02:00pm 14.6 WSW 8 12 1006.9 - 0.6 - Partly cloudy 10 - - - -
24/01:30pm 14.5 WSW 10 14 1007.1 - 0.4 - Partly cloudy 10 - - - -
24/01:27pm 14.3 WSW 10 14 1007.2 - 0.4 - Partly cloudy 10 - - - -
24/01:00pm 15.1 WSW 9 13 1007.3 - 0.4 - Partly cloudy 7 - - - -
24/12:58pm 15.2 WSW 9 13 1007.4 - 0.4 - Partly cloudy 7 - - - -
24/12:38pm 15.6 NW 4 6 1007.6 - 0.4 - Partly cloudy 10 - - - -
24/12:30pm 15.5 N 5 5 1007.6 - 0.4 - Partly cloudy 10 - - - -
24/12:28pm 15.5 N 5 5 1007.6 - 0.4 - Partly cloudy 10 - - - -
24/12:00pm 15.8 ENE 7 8 1007.4 - 0.4 Rain Cloudy 10 - - - -
24/11:30am 16.0 ENE 7 10 1007.4 - 0.4 - Partly cloudy 10 - - - -
24/11:00am 15.6 ENE 7 10 1008.0 - 0.4 - Partly cloudy 10 - - - -
24/10:30am 15.3 E 4 6 1008.6 - 0.4 - Partly cloudy 10 - - - -
24/10:00am 15.6 E 5 7 1009.0 - 0.4 - Partly cloudy 10 - - - -
24/09:30am 14.9 NNE 7 9 1009.6 - 0.0 - Partly cloudy 10 - - - -
24/09:00am 14.9 ENE 8 10 1008.9 - 1.2 Rain Cloudy 10 - - - -
24/08:30am 14.5 E 11 13 1008.4 - 1.0 - Partly cloudy 10 - - - -
24/08:00am 14.1 NE 3 7 1009.7 - 0.6 - Partly cloudy 10 - - - -
24/07:30am 14.0 E 6 7 1008.9 - 0.6 - Partly cloudy 10 - - - -
24/07:00am 13.8 E 5 8 1008.7 - 0.4 - Partly cloudy 10 - - - -
24/06:30am 13.3 ESE 6 7 1008.9 - 0.4 - Partly cloudy 10 - - - -
24/06:00am 13.4 ENE 5 6 1009.2 - 0.4 Showers Mostly cloudy 10 - - - -
24/05:30am 13.8 ENE 3 7 1010.5 - 0.0 - Partly cloudy 10 - - - -
24/05:00am 13.5 ENE 7 8 1008.6 - 0.0 - Cloudy 10 - - - -
24/04:30am 13.1 E 6 6 1009.1 - 0.0 - Cloudy 10 - - - -
24/04:00am 13.1 E 5 6 1009.4 - 0.0 - Cloudy 10 - - - -
24/03:30am 13.1 ENE 4 5 1010.4 - 0.0 - Cloudy 10 - - - -
24/03:00am 12.7 E 6 7 1010.4 - 0.0 - Cloudy 10 - - - -
24/02:30am 12.6 E 5 5 1011.3 - 0.0 - Partly cloudy 10 - - - -
24/02:00am 12.7 NE 4 5 1011.5 - 0.0 - Partly cloudy 10 - - - -
24/01:30am 12.8 NE 3 5 1012.2 - 0.0 - Partly cloudy 10 - - - -
24/01:00am 12.5 E 6 7 1012.0 - 0.0 - Partly cloudy 10 - - - -
24/12:30am 12.0 NE 5 6 1012.7 - 0.0 - - 10 - - - -
24/12:00am 12.0 NE 6 7 1012.8 - 0.0 - Mostly clear 10 - - - -
 
Date/Time
EDT
Temp

°C
Wind Pressure Rain
since 9am
mm
Weather Cloud Vis
km
Sea
Height
m
Swell
Dir
 
Speed
knots
Gust
knots
hPa Trend Height
m
Period
s
Dir
23/11:30pm 11.5 NE 5 7 1013.1 - 0.0 - - 10 - - - -
23/11:00pm 12.2 CALM 0 0 1013.3 - 0.0 - - 10 - - - -
23/10:30pm 12.3 ENE 2 5 1013.0 - 0.0 - - 10 - - - -
23/10:00pm 12.5 NE 2 4 1013.0 - 0.0 - - 10 - - - -
23/09:30pm 13.5 CALM 0 0 1012.6 - 0.0 - - 10 - - - -
23/09:00pm 13.8 ESE 4 5 1012.6 - 0.0 - - 10 - - - -
23/08:30pm 14.5 SE 3 6 1012.4 - 0.0 - - 10 - - - -
23/08:00pm 15.1 SSW 3 4 1012.9 - 0.0 - - 10 - - - -
23/07:30pm 15.6 W 5 6 1013.1 - 0.0 - - 10 - - - -
23/07:00pm 15.9 W 7 9 1013.1 - 0.0 - Partly cloudy 10 - - - -
23/06:30pm 16.1 WNW 9 12 1013.3 - 0.0 - Partly cloudy 10 - - - -
23/06:00pm 16.7 WNW 11 15 1013.3 - 0.0 - Partly cloudy 10 - - - -
23/05:30pm 16.7 WNW 10 14 1013.0 - 0.0 - Partly cloudy 10 - - - -
23/05:00pm 16.9 NW 10 15 1013.0 - 0.0 - - 10 - - - -
23/04:30pm 17.5 NW 9 14 1012.7 - 0.0 - - 10 - - - -
23/04:00pm 17.3 WNW 9 13 1012.5 - 0.0 - - 10 - - - -
23/03:30pm 17.3 NW 9 13 1012.6 - 0.0 - Partly cloudy 10 - - - -
23/03:00pm 17.9 WNW 9 14 1012.5 - 0.0 - Mostly clear 10 - - - -
23/02:30pm 17.0 W 10 16 1012.1 - 0.0 - Partly cloudy 10 - - - -

Other Formats:

Comma delimited format used in spreadsheet applications
http://www.bom.gov.au/fwo/IDV60701/IDV60701.94850.axf

JavaScript Object Notation format (JSON) in row-major order
http://www.bom.gov.au/fwo/IDV60701/IDV60701.94850.json